Accueil
METAR-TAF:

METAR-TAF

Aéroports :

Aéroport international de Rome Ciampino

Rome Ciampino, Italie

latitude: 41-47N, longitude: 012-35E, altitude: 129 m

Observation

Le bulletin a été fait il y a 36 minutes, à 18:50 UTC
Vent 9 kt de nord/nord-est
Température 8°C
Humidité 76%
Pression 1015 hPa
Visibilité 10 km ou plus
Nuages épars à une hauteur de 4000 ft

METAR: LIRA 311850Z 03009KT 9999 SCT040 08/04 Q1015

Heure: 21:26 (19:26 UTC)

Prévision

Le bulletin a été fait il y a 2 heures et 26 minutes, à 17:00 UTC
Prévision valable du 31 à 18 UTC au 01 à 18 UTC
Vent 8 kt de nord-est
Visibilité 10 km ou plus
Quelques nuages à une hauteur de 3000 ft

TAF: LIRA 311700Z 3118/0118 05008KT 9999 FEW030

Observations et prévisions météorologiques de plus de 4000 aéroports (messages METAR et TAF).

Les stations disponibles sont représentées par des disques jaunes et rouges sur la carte.

Passer la souris dessus pour voir le nom de la station.

Cliquer dessus pour voir les observations et prévisions météorologiques.

Pour changer de carte: cliquez sur les boutons verts avec une croix noire pour zoomer, sur le bouton vert avec un tiret pour effectuer un zoom arrière, ou sur les flèches vertes pour les cartes adjacentes.


METAR-TAF: